Time;durP1;ratioP1;P1;durP2;ratioP2;P2;SDS_P1;SDS_P2;PMS_P1;PMS_P2;Temp;Humidity;BMP_temperature;BMP_pressure;BME280_temperature;BME280_humidity;BME280_pressure;Samples;Min_cycle;Max_cycle;Signal;HPM_P1;HPM_P2
2022/03/24 00:01:54;;;;;;;15.10;3.95;;;4.40;99.90;;;;;;5145980;28;20039;-73
2022/03/24 00:04:24;;;;;;;11.70;3.53;;;4.20;99.90;;;;;;5148220;28;20106;-73
2022/03/24 00:06:55;;;;;;;14.63;4.28;;;4.10;99.90;;;;;;5149917;28;20042;-73
2022/03/24 00:09:26;;;;;;;19.15;4.35;;;4.10;99.90;;;;;;5150114;28;20485;-73
2022/03/24 00:11:57;;;;;;;15.18;6.82;;;4.20;99.90;;;;;;5132634;28;20038;-73
2022/03/24 00:14:28;;;;;;;21.35;3.90;;;4.00;99.90;;;;;;5132844;28;20439;-74
2022/03/24 00:16:59;;;;;;;22.30;5.03;;;4.10;99.90;;;;;;5149893;28;20026;-73
2022/03/24 00:19:30;;;;;;;12.10;3.25;;;4.10;99.90;;;;;;5150111;28;20031;-73
2022/03/24 00:22:01;;;;;;;18.20;4.10;;;4.00;99.90;;;;;;5149862;28;20382;-73
2022/03/24 00:24:32;;;;;;;16.38;3.63;;;3.90;99.90;;;;;;5149588;28;20072;-73
2022/03/24 00:27:03;;;;;;;12.90;4.03;;;4.10;99.90;;;;;;5149536;28;20070;-73
2022/03/24 00:29:34;;;;;;;18.60;4.32;;;4.00;99.90;;;;;;5149664;28;20103;-73
2022/03/24 00:32:05;;;;;;;15.23;2.90;;;3.90;99.90;;;;;;5149728;28;20034;-73
2022/03/24 00:34:36;;;;;;;10.05;2.13;;;3.90;99.90;;;;;;5149597;28;20038;-73
2022/03/24 00:37:08;;;;;;;8.05;2.60;;;4.10;99.90;;;;;;5149508;28;20027;-72
2022/03/24 00:39:40;;;;;;;5.55;2.60;;;3.90;99.90;;;;;;5149669;28;20030;-72
2022/03/24 00:42:11;;;;;;;8.48;2.55;;;4.00;99.90;;;;;;5149658;28;20023;-72
2022/03/24 00:44:42;;;;;;;8.75;2.53;;;3.80;99.90;;;;;;5132070;28;20031;-73
2022/03/24 00:47:16;;;;;;;9.38;2.00;;;3.90;99.90;;;;;;5149318;28;20069;-73
2022/03/24 00:49:47;;;;;;;9.32;2.15;;;4.00;99.90;;;;;;5149251;28;20482;-73
2022/03/24 00:52:18;;;;;;;21.58;7.47;;;4.00;99.90;;;;;;5132118;28;20034;-73
2022/03/24 00:54:49;;;;;;;12.52;2.45;;;3.90;99.90;;;;;;5149291;28;20420;-73
2022/03/24 00:57:20;;;;;;;6.13;2.17;;;4.00;99.90;;;;;;5131822;28;20391;-73
2022/03/24 00:59:51;;;;;;;12.70;2.58;;;3.90;99.90;;;;;;5148559;28;20054;-73
2022/03/24 01:02:25;;;;;;;8.90;2.22;;;3.80;99.90;;;;;;5147787;28;20026;-74
2022/03/24 01:04:56;;;;;;;10.68;2.53;;;4.10;99.90;;;;;;5130413;28;20077;-76
2022/03/24 01:07:28;;;;;;;10.55;2.40;;;4.10;99.90;;;;;;5130404;28;20035;-73
2022/03/24 01:09:58;;;;;;;11.82;2.55;;;3.90;99.90;;;;;;5130294;28;20492;-73
2022/03/24 01:12:29;;;;;;;9.50;2.80;;;3.90;99.90;;;;;;5130359;28;20030;-73
2022/03/24 01:15:00;;;;;;;9.90;2.65;;;3.90;99.90;;;;;;5147397;28;20015;-73
2022/03/24 01:17:31;;;;;;;7.25;2.90;;;3.90;99.90;;;;;;5147480;28;20039;-73
2022/03/24 01:20:04;;;;;;;9.32;2.00;;;3.90;99.90;;;;;;5147711;28;20118;-73
2022/03/24 01:22:35;;;;;;;15.65;2.50;;;3.80;99.90;;;;;;5147577;28;20479;-73
2022/03/24 01:25:07;;;;;;;9.20;2.13;;;4.00;99.90;;;;;;5147439;28;20023;-73
2022/03/24 01:27:38;;;;;;;8.75;2.75;;;4.00;99.90;;;;;;5147260;28;20097;-73
2022/03/24 01:30:09;;;;;;;6.90;2.10;;;4.10;99.90;;;;;;5147345;28;20110;-73
2022/03/24 01:32:41;;;;;;;11.02;2.70;;;3.90;99.90;;;;;;5147415;28;20089;-73
2022/03/24 01:35:12;;;;;;;14.90;2.20;;;3.90;99.90;;;;;;5147355;28;20031;-73
2022/03/24 01:37:44;;;;;;;6.85;1.98;;;4.00;99.90;;;;;;5147550;28;20489;-73
2022/03/24 01:40:14;;;;;;;10.20;5.00;;;4.00;99.90;;;;;;5147277;28;20378;-73
2022/03/24 01:42:46;;;;;;;9.40;1.98;;;3.80;99.90;;;;;;5129759;28;20030;-73
2022/03/24 01:45:19;;;;;;;10.07;2.22;;;3.80;99.90;;;;;;5129907;28;20027;-73
2022/03/24 01:47:50;;;;;;;9.13;2.90;;;3.90;99.90;;;;;;5147207;28;20534;-73
2022/03/24 01:50:21;;;;;;;6.68;2.25;;;3.80;99.90;;;;;;5147168;28;20023;-73
2022/03/24 01:52:53;;;;;;;8.02;2.47;;;3.90;99.90;;;;;;5146876;28;20443;-73
2022/03/24 01:55:24;;;;;;;10.13;2.67;;;3.80;99.90;;;;;;5162001;28;20391;-73
2022/03/24 01:57:55;;;;;;;5.05;2.28;;;3.50;99.90;;;;;;5146992;28;20034;-73
2022/03/24 02:03:21;;;;;;;8.85;2.65;;;3.20;99.90;;;;;;4620287;23;20349;-74
2022/03/24 02:05:52;;;;;;;8.35;2.22;;;3.60;99.90;;;;;;5106764;29;20040;-74
2022/03/24 02:08:23;;;;;;;11.15;2.28;;;3.20;99.90;;;;;;5108115;29;20035;-76
2022/03/24 02:10:54;;;;;;;9.25;2.63;;;3.30;99.90;;;;;;5108113;29;20087;-74
2022/03/24 02:13:24;;;;;;;9.60;2.15;;;3.10;99.90;;;;;;5107962;29;20055;-74
2022/03/24 02:15:55;;;;;;;8.98;2.08;;;3.00;99.90;;;;;;5106556;29;20375;-74
2022/03/24 02:18:26;;;;;;;11.52;2.30;;;3.40;99.90;;;;;;5106697;29;20034;-75
2022/03/24 02:20:57;;;;;;;6.65;2.20;;;3.30;99.90;;;;;;5107897;29;20368;-73
2022/03/24 02:23:28;;;;;;;12.77;2.30;;;3.40;99.90;;;;;;5107823;29;20510;-73
2022/03/24 02:26:02;;;;;;;8.10;2.10;;;3.90;99.90;;;;;;5106997;29;20048;-75
2022/03/24 02:28:33;;;;;;;9.15;2.25;;;3.60;99.90;;;;;;5107571;29;20083;-74
2022/03/24 02:31:04;;;;;;;6.55;2.30;;;3.20;99.90;;;;;;5107369;29;20027;-74
2022/03/24 02:33:36;;;;;;;8.13;2.58;;;3.00;99.90;;;;;;5107730;29;20024;-74
2022/03/24 02:36:07;;;;;;;9.68;2.45;;;2.80;99.90;;;;;;5107525;29;20036;-74
2022/03/24 02:38:38;;;;;;;8.30;3.00;;;2.60;99.90;;;;;;5107353;29;20020;-73
2022/03/24 02:41:09;;;;;;;7.45;2.40;;;3.30;99.90;;;;;;5107601;29;20028;-76
2022/03/24 02:43:40;;;;;;;7.82;2.88;;;3.30;99.90;;;;;;5107322;29;20016;-74
2022/03/24 02:46:11;;;;;;;11.13;2.80;;;3.40;99.90;;;;;;5107449;29;20046;-74
2022/03/24 02:48:41;;;;;;;8.02;2.20;;;3.10;99.90;;;;;;5107127;29;20030;-74
2022/03/24 02:51:12;;;;;;;5.95;2.47;;;3.60;99.90;;;;;;5107140;29;20031;-74
2022/03/24 02:53:43;;;;;;;5.60;1.67;;;3.40;99.90;;;;;;5107177;29;20020;-73
2022/03/24 02:56:14;;;;;;;8.45;3.05;;;3.10;99.90;;;;;;5107188;29;20035;-74
2022/03/24 02:58:45;;;;;;;7.90;2.70;;;3.40;99.90;;;;;;5107085;29;20047;-74
2022/03/24 03:01:18;;;;;;;4.63;1.60;;;3.30;99.90;;;;;;5106852;29;20110;-73
2022/03/24 03:03:49;;;;;;;11.65;1.92;;;2.90;99.90;;;;;;5106836;29;20047;-73
2022/03/24 03:06:21;;;;;;;10.35;1.92;;;2.60;99.90;;;;;;5107081;29;20480;-74
2022/03/24 03:08:52;;;;;;;7.10;1.90;;;2.10;99.90;;;;;;5106935;29;20027;-74
2022/03/24 03:11:23;;;;;;;9.05;2.22;;;2.10;99.90;;;;;;5105545;29;20039;-74
2022/03/24 03:13:54;;;;;;;5.47;1.95;;;1.90;99.90;;;;;;5106967;29;20364;-73
2022/03/24 03:16:26;;;;;;;8.23;2.00;;;1.80;99.90;;;;;;5106841;29;20490;-73
2022/03/24 03:18:57;;;;;;;9.15;2.17;;;1.60;99.90;;;;;;5106959;29;20055;-73
2022/03/24 03:21:28;;;;;;;6.75;2.10;;;2.00;99.90;;;;;;5105477;29;20027;-73
2022/03/24 03:23:59;;;;;;;7.65;1.80;;;1.30;99.90;;;;;;5106716;29;20035;-74
2022/03/24 03:26:30;;;;;;;5.50;1.90;;;1.60;99.90;;;;;;5106610;29;20063;-74
2022/03/24 03:29:02;;;;;;;5.05;1.65;;;1.20;99.90;;;;;;5106723;29;21157;-74
2022/03/24 03:31:36;;;;;;;7.30;1.85;;;1.00;99.90;;;;;;5105106;29;20119;-75
2022/03/24 03:34:09;;;;;;;7.32;2.00;;;1.20;99.90;;;;;;5105402;29;20023;-73
2022/03/24 03:36:40;;;;;;;6.32;2.22;;;1.00;99.90;;;;;;5106546;29;20039;-74
2022/03/24 03:39:11;;;;;;;12.95;1.85;;;1.00;99.90;;;;;;5106458;29;20024;-73
2022/03/24 03:41:42;;;;;;;8.00;2.40;;;0.90;99.90;;;;;;5106416;29;20083;-74
2022/03/24 03:44:13;;;;;;;10.30;1.88;;;0.80;99.90;;;;;;5106694;29;20111;-75
2022/03/24 03:46:44;;;;;;;7.35;2.05;;;0.70;99.90;;;;;;5106420;29;20515;-74
2022/03/24 03:49:15;;;;;;;9.30;2.63;;;0.60;99.90;;;;;;5105151;29;20345;-74
2022/03/24 03:51:46;;;;;;;8.27;2.40;;;0.70;99.90;;;;;;5104976;29;20043;-73
2022/03/24 03:54:16;;;;;;;10.43;2.10;;;0.80;99.90;;;;;;5106473;29;20027;-74
2022/03/24 03:56:47;;;;;;;7.30;2.22;;;0.50;99.90;;;;;;5106591;29;20059;-74
2022/03/24 03:59:18;;;;;;;9.25;2.42;;;0.60;99.90;;;;;;5106512;29;20035;-74
2022/03/24 04:01:49;;;;;;;7.00;1.92;;;0.50;99.90;;;;;;5104904;29;20039;-74
2022/03/24 04:04:20;;;;;;;6.45;1.88;;;0.50;99.90;;;;;;5106256;29;20106;-74
2022/03/24 04:06:50;;;;;;;9.52;2.30;;;0.60;99.90;;;;;;5106183;29;20430;-74
2022/03/24 04:09:21;;;;;;;6.97;2.20;;;0.40;99.90;;;;;;5105184;29;20028;-74
2022/03/24 04:11:52;;;;;;;8.00;2.42;;;0.50;99.90;;;;;;5106009;29;20106;-73
2022/03/24 04:14:25;;;;;;;11.32;2.00;;;0.40;99.90;;;;;;5106270;29;20383;-73
2022/03/24 04:16:57;;;;;;;9.70;2.00;;;0.20;99.90;;;;;;5106307;29;20035;-74
2022/03/24 04:19:28;;;;;;;4.65;1.98;;;0.20;99.90;;;;;;5106124;29;20043;-74
2022/03/24 04:21:59;;;;;;;6.38;2.05;;;0.40;99.90;;;;;;5106064;29;20024;-73
2022/03/24 04:24:30;;;;;;;4.90;1.73;;;0.30;99.90;;;;;;5106183;29;20445;-74
2022/03/24 04:27:01;;;;;;;8.02;1.90;;;0.40;99.90;;;;;;5106215;29;20058;-73
2022/03/24 04:29:32;;;;;;;7.97;2.58;;;0.30;99.90;;;;;;5104851;29;20035;-74
2022/03/24 04:32:05;;;;;;;5.57;1.73;;;0.20;99.90;;;;;;5105836;29;20034;-74
2022/03/24 04:34:36;;;;;;;7.55;2.38;;;0.00;99.90;;;;;;5106070;29;20038;-75
2022/03/24 04:37:07;;;;;;;8.55;2.03;;;0.70;99.90;;;;;;5105998;29;20371;-75
2022/03/24 04:39:38;;;;;;;5.70;1.75;;;0.50;99.90;;;;;;5106143;29;20028;-73
2022/03/24 04:42:09;;;;;;;7.13;2.10;;;0.30;99.90;;;;;;5105768;29;20023;-73
2022/03/24 04:44:40;;;;;;;7.78;2.30;;;0.10;99.90;;;;;;5105888;29;20079;-74
2022/03/24 04:47:10;;;;;;;5.78;2.20;;;0.30;99.90;;;;;;5105622;29;20067;-75
2022/03/24 04:49:42;;;;;;;6.00;1.80;;;0.30;99.90;;;;;;5106940;29;20027;-74
2022/03/24 04:52:13;;;;;;;4.25;1.70;;;0.40;99.90;;;;;;5109389;29;20027;-73
2022/03/24 04:54:45;;;;;;;6.93;1.90;;;0.60;99.90;;;;;;5108325;29;20534;-73
2022/03/24 04:57:16;;;;;;;6.18;1.80;;;0.60;99.90;;;;;;5109545;29;20035;-75
2022/03/24 04:59:46;;;;;;;5.32;2.00;;;0.60;99.90;;;;;;5109378;29;20027;-74
2022/03/24 05:02:18;;;;;;;7.75;2.10;;;0.90;99.90;;;;;;5108661;29;20056;-75
2022/03/24 05:04:49;;;;;;;9.30;1.83;;;0.90;99.90;;;;;;5109457;29;20027;-74
2022/03/24 05:07:20;;;;;;;5.50;1.95;;;0.90;99.90;;;;;;5109120;29;20031;-74
2022/03/24 05:09:53;;;;;;;5.93;1.98;;;1.10;99.90;;;;;;5109263;29;20120;-74
2022/03/24 05:12:23;;;;;;;6.20;1.70;;;1.10;99.90;;;;;;5109343;29;20506;-73
2022/03/24 05:14:54;;;;;;;6.78;1.75;;;1.20;99.90;;;;;;5109133;29;20051;-74
2022/03/24 05:17:25;;;;;;;11.15;2.25;;;1.60;99.90;;;;;;5109295;29;20110;-73
2022/03/24 05:19:56;;;;;;;4.03;1.75;;;2.10;99.90;;;;;;5109008;29;20078;-74
2022/03/24 05:22:27;;;;;;;11.77;2.47;;;1.80;99.90;;;;;;5108980;29;20038;-73
2022/03/24 05:24:58;;;;;;;8.05;2.40;;;2.50;99.90;;;;;;5109170;29;20020;-74
2022/03/24 05:27:29;;;;;;;9.27;2.53;;;2.60;99.90;;;;;;5108819;29;20044;-74
2022/03/24 05:30:00;;;;;;;8.80;2.78;;;3.00;99.90;;;;;;5103417;29;20423;-74
2022/03/24 05:32:31;;;;;;;13.57;3.65;;;3.70;99.90;;;;;;5108630;29;20036;-77
2022/03/24 05:35:02;;;;;;;7.85;2.00;;;4.40;99.90;;;;;;5109869;29;20051;-75
2022/03/24 05:37:33;;;;;;;4.47;2.40;;;5.40;99.90;;;;;;5109400;29;20062;-74
2022/03/24 05:40:04;;;;;;;8.10;2.25;;;5.50;99.90;;;;;;5112838;29;20484;-74
2022/03/24 05:42:35;;;;;;;5.32;1.92;;;5.90;99.90;;;;;;5114905;28;20042;-76
2022/03/24 05:45:07;;;;;;;6.07;2.45;;;6.00;99.90;;;;;;5117369;29;20027;-74
2022/03/24 05:47:38;;;;;;;7.80;3.03;;;6.10;99.90;;;;;;5115519;28;20970;-75
2022/03/24 05:50:09;;;;;;;7.68;2.08;;;6.20;99.90;;;;;;5113243;29;20059;-75
2022/03/24 05:52:40;;;;;;;7.50;2.60;;;6.30;99.90;;;;;;5114684;28;20059;-74
2022/03/24 05:55:11;;;;;;;7.57;3.15;;;6.30;99.90;;;;;;5116773;29;20102;-74
2022/03/24 05:57:44;;;;;;;7.68;2.88;;;6.70;99.90;;;;;;5118181;29;20419;-74
2022/03/24 06:00:15;;;;;;;11.10;4.18;;;6.80;99.90;;;;;;5112152;29;20083;-75
2022/03/24 06:02:46;;;;;;;8.95;3.13;;;6.80;99.90;;;;;;5111043;28;20059;-73
2022/03/24 06:05:18;;;;;;;10.52;2.90;;;6.90;99.90;;;;;;5112248;28;20039;-75
2022/03/24 06:07:49;;;;;;;10.07;3.28;;;7.60;99.90;;;;;;5116746;29;20058;-74
2022/03/24 06:10:20;;;;;;;4.15;1.83;;;7.20;99.90;;;;;;5114417;29;20349;-75
2022/03/24 06:12:51;;;;;;;7.85;1.98;;;7.40;96.60;;;;;;5115336;29;20086;-74
2022/03/24 06:15:22;;;;;;;9.80;2.53;;;7.30;94.60;;;;;;5114544;29;20428;-75
2022/03/24 06:17:53;;;;;;;4.90;2.00;;;7.50;89.20;;;;;;5115372;29;20027;-74
2022/03/24 06:20:24;;;;;;;7.63;2.00;;;7.60;95.10;;;;;;5116772;28;20028;-74
2022/03/24 06:22:55;;;;;;;6.75;2.30;;;7.80;92.50;;;;;;5115042;29;20164;-74
2022/03/24 06:25:26;;;;;;;5.88;2.15;;;7.60;92.90;;;;;;5113078;29;20051;-74
2022/03/24 06:27:57;;;;;;;11.75;2.00;;;7.60;99.00;;;;;;5110282;29;20028;-73
2022/03/24 06:30:28;;;;;;;6.68;1.88;;;7.50;96.60;;;;;;5108564;28;20423;-74
2022/03/24 06:32:59;;;;;;;6.78;1.80;;;7.60;99.90;;;;;;5111181;29;20047;-75
2022/03/24 06:35:30;;;;;;;6.38;2.35;;;7.60;99.90;;;;;;5114042;29;20551;-73
2022/03/24 06:38:01;;;;;;;6.43;2.35;;;7.70;99.90;;;;;;5109402;28;20392;-73
2022/03/24 06:40:32;;;;;;;7.60;1.73;;;8.00;99.90;;;;;;5112432;29;20028;-73
2022/03/24 06:43:03;;;;;;;6.10;2.00;;;7.70;99.90;;;;;;5113436;29;20019;-76
2022/03/24 06:45:34;;;;;;;4.50;2.03;;;8.00;99.90;;;;;;5115065;28;20032;-76
2022/03/24 06:48:09;;;;;;;10.23;2.17;;;8.20;99.90;;;;;;5115069;28;20031;-74
2022/03/24 06:50:40;;;;;;;5.95;2.38;;;8.20;99.90;;;;;;5107498;29;20039;-75
2022/03/24 06:53:12;;;;;;;7.80;1.95;;;8.20;99.90;;;;;;5111869;29;20071;-75
2022/03/24 06:55:43;;;;;;;4.78;2.25;;;8.20;99.90;;;;;;5108739;28;20051;-74
2022/03/24 06:58:14;;;;;;;7.95;2.67;;;8.40;99.90;;;;;;5114446;29;20027;-73
2022/03/24 07:00:44;;;;;;;6.20;2.22;;;8.50;99.90;;;;;;5108296;29;20435;-74
2022/03/24 07:03:15;;;;;;;8.63;2.53;;;8.60;99.90;;;;;;5111405;29;20052;-76
2022/03/24 07:05:46;;;;;;;4.50;2.13;;;8.50;99.90;;;;;;5109308;29;20082;-76
2022/03/24 07:08:17;;;;;;;6.32;1.80;;;8.80;99.90;;;;;;5110573;29;20031;-76
2022/03/24 07:10:48;;;;;;;5.65;1.75;;;8.70;99.90;;;;;;5113312;28;20027;-75
2022/03/24 07:13:19;;;;;;;10.35;2.67;;;8.70;99.90;;;;;;5113971;28;20027;-75
2022/03/24 07:15:50;;;;;;;9.77;2.40;;;9.00;99.90;;;;;;5109901;29;20506;-76
2022/03/24 07:18:21;;;;;;;6.70;2.42;;;8.70;99.90;;;;;;5115825;29;20430;-76
2022/03/24 07:20:52;;;;;;;9.02;2.58;;;8.90;99.90;;;;;;5116887;28;20117;-76
2022/03/24 07:23:23;;;;;;;7.18;2.58;;;9.10;99.90;;;;;;5112301;29;20052;-76
2022/03/24 07:25:54;;;;;;;7.10;2.10;;;9.20;99.90;;;;;;5107493;29;20445;-75
2022/03/24 07:28:27;;;;;;;7.72;2.70;;;9.10;99.90;;;;;;5108172;29;20110;-75
2022/03/24 07:30:58;;;;;;;10.43;2.53;;;9.20;99.90;;;;;;5107695;29;20510;-74
2022/03/24 07:33:28;;;;;;;5.35;2.63;;;9.30;99.90;;;;;;5111268;29;20019;-74
2022/03/24 07:35:59;;;;;;;4.93;2.55;;;9.50;99.90;;;;;;5108100;29;20031;-74
2022/03/24 07:38:30;;;;;;;8.52;2.63;;;9.60;99.90;;;;;;5111309;29;20038;-73
2022/03/24 07:41:06;;;;;;;9.00;2.45;;;9.50;94.80;;;;;;5109116;29;20016;-74
2022/03/24 07:43:38;;;;;;;9.77;2.40;;;9.40;91.10;;;;;;5114076;29;20410;-75
2022/03/24 07:46:09;;;;;;;8.82;3.00;;;9.40;87.50;;;;;;5108151;29;20372;-74
2022/03/24 07:48:40;;;;;;;9.48;2.33;;;9.80;99.90;;;;;;5109836;29;20031;-74
2022/03/24 07:51:11;;;;;;;9.38;2.58;;;9.90;94.20;;;;;;5110487;29;20038;-74
2022/03/24 07:53:48;;;;;;;5.40;2.28;;;9.90;95.70;;;;;;5112737;29;20024;-74
2022/03/24 07:56:26;;;;;;;6.75;2.45;;;9.80;87.70;;;;;;5114421;28;20028;-74
2022/03/24 07:58:58;;;;;;;6.40;2.55;;;10.20;92.40;;;;;;5113912;28;20034;-74
2022/03/24 08:01:39;;;;;;;7.97;2.70;;;10.20;87.00;;;;;;5107728;29;20039;-74
2022/03/24 08:04:10;;;;;;;6.82;3.40;;;10.50;88.10;;;;;;5111299;29;20048;-73
2022/03/24 08:06:42;;;;;;;10.73;3.30;;;10.10;80.30;;;;;;5108481;29;20055;-74
2022/03/24 08:09:13;;;;;;;9.18;3.17;;;10.30;82.50;;;;;;5113917;28;20459;-72
2022/03/24 08:11:45;;;;;;;6.32;3.30;;;10.50;81.60;;;;;;5109129;28;20484;-73
2022/03/24 08:14:16;;;;;;;9.98;3.50;;;10.70;84.60;;;;;;5109661;29;20111;-74
2022/03/24 08:16:47;;;;;;;9.27;3.10;;;10.50;78.50;;;;;;5111236;29;20162;-76
2022/03/24 08:19:18;;;;;;;9.20;3.20;;;10.80;79.80;;;;;;5113170;29;20020;-75
2022/03/24 08:21:48;;;;;;;8.90;3.97;;;10.80;85.50;;;;;;5112310;29;20035;-73
2022/03/24 08:24:19;;;;;;;8.15;3.30;;;11.20;78.90;;;;;;5112609;28;20020;-73
2022/03/24 08:26:50;;;;;;;6.75;3.70;;;10.90;75.50;;;;;;5116730;29;20042;-74
2022/03/24 08:29:21;;;;;;;8.98;3.25;;;11.20;78.40;;;;;;5114325;29;20024;-74
2022/03/24 08:31:52;;;;;;;9.32;3.50;;;11.30;73.70;;;;;;5112384;29;20039;-74
2022/03/24 08:34:28;;;;;;;8.20;3.60;;;11.20;69.90;;;;;;5110843;29;20492;-73
2022/03/24 08:36:59;;;;;;;8.73;3.58;;;11.70;71.30;;;;;;5109719;29;20043;-72
2022/03/24 08:39:30;;;;;;;9.65;3.78;;;11.80;70.60;;;;;;5112693;29;20019;-73
2022/03/24 08:42:02;;;;;;;8.90;4.60;;;11.60;66.20;;;;;;5120996;28;20031;-72
2022/03/24 08:44:33;;;;;;;9.43;5.47;;;11.70;70.10;;;;;;5116722;29;20398;-73
2022/03/24 08:47:05;;;;;;;7.75;5.18;;;11.50;63.40;;;;;;5117905;28;20039;-73
2022/03/24 08:49:36;;;;;;;11.55;4.78;;;11.80;65.30;;;;;;5118315;28;21150;-73
2022/03/24 08:52:09;;;;;;;8.52;4.28;;;11.90;68.70;;;;;;5115958;28;20035;-73
2022/03/24 08:54:40;;;;;;;12.38;4.50;;;11.90;67.30;;;;;;5114668;29;20155;-74
2022/03/24 08:57:11;;;;;;;9.43;4.13;;;11.90;66.20;;;;;;5119745;29;20119;-73
2022/03/24 08:59:42;;;;;;;6.03;3.65;;;11.80;64.50;;;;;;5113200;28;20071;-73
2022/03/24 09:02:14;;;;;;;7.47;3.58;;;12.00;63.90;;;;;;5117407;28;20476;-73
2022/03/24 09:04:44;;;;;;;5.32;3.35;;;12.20;62.90;;;;;;5113036;29;20036;-73
2022/03/24 09:07:16;;;;;;;7.85;3.25;;;12.50;65.60;;;;;;5113390;29;20055;-75
2022/03/24 09:09:47;;;;;;;4.75;3.40;;;12.70;67.00;;;;;;5112500;28;20039;-73
2022/03/24 09:12:18;;;;;;;6.55;3.63;;;12.30;62.40;;;;;;5113018;29;20027;-74
2022/03/24 09:14:49;;;;;;;8.32;3.70;;;12.60;61.20;;;;;;5117342;29;20035;-75
2022/03/24 09:17:20;;;;;;;7.88;3.50;;;13.00;61.90;;;;;;5110437;29;20028;-74
2022/03/24 09:19:51;;;;;;;9.25;4.53;;;12.90;62.00;;;;;;5114271;28;20103;-75
2022/03/24 09:22:22;;;;;;;7.63;4.60;;;12.80;58.50;;;;;;5114655;29;20031;-74
2022/03/24 09:24:53;;;;;;;5.72;3.40;;;13.10;59.50;;;;;;5113448;29;20027;-74
2022/03/24 09:27:24;;;;;;;7.72;3.50;;;12.60;56.10;;;;;;5117511;29;20077;-73
2022/03/24 09:29:54;;;;;;;5.60;3.30;;;13.00;54.10;;;;;;5117113;28;20058;-74
2022/03/24 09:32:25;;;;;;;7.45;4.07;;;13.10;53.90;;;;;;5108242;29;20562;-73
2022/03/24 09:34:57;;;;;;;4.72;2.90;;;13.00;54.20;;;;;;5116519;28;20035;-74
2022/03/24 09:37:29;;;;;;;4.25;2.95;;;13.20;53.30;;;;;;5113832;29;20032;-75
2022/03/24 09:40:00;;;;;;;5.70;3.00;;;13.50;52.80;;;;;;5111838;29;20036;-75
2022/03/24 09:42:32;;;;;;;7.50;3.08;;;13.30;52.50;;;;;;5114020;29;20051;-74
2022/03/24 09:45:05;;;;;;;4.97;2.53;;;13.80;54.40;;;;;;5117643;28;20062;-75
2022/03/24 09:47:37;;;;;;;6.45;2.80;;;13.30;52.60;;;;;;5118222;29;20035;-73
2022/03/24 09:50:10;;;;;;;3.80;2.22;;;13.50;49.40;;;;;;5112468;28;20134;-75
2022/03/24 09:52:41;;;;;;;3.92;1.70;;;13.60;49.40;;;;;;5110143;29;20043;-74
2022/03/24 09:55:12;;;;;;;5.43;2.22;;;13.40;47.60;;;;;;5116044;29;20036;-76
2022/03/24 09:57:44;;;;;;;5.25;2.25;;;13.90;49.60;;;;;;5116590;29;20027;-75
2022/03/24 10:00:16;;;;;;;5.70;2.20;;;14.40;50.70;;;;;;5112100;28;20049;-75
2022/03/24 10:03:17;;;;;;;8.48;2.35;;;13.60;48.40;;;;;;5115884;28;20192;-75
2022/03/24 10:05:55;;;;;;;4.63;2.40;;;14.00;49.70;;;;;;5113951;29;20028;-73
2022/03/24 10:08:27;;;;;;;6.28;3.03;;;14.20;50.90;;;;;;5110856;29;20114;-73
2022/03/24 10:11:06;;;;;;;4.57;2.20;;;14.30;48.40;;;;;;5112736;28;20019;-73
2022/03/24 10:13:54;;;;;;;5.70;2.60;;;14.10;48.50;;;;;;5114166;28;20028;-73
2022/03/24 10:16:34;;;;;;;6.15;2.35;;;14.40;51.70;;;;;;5114029;28;20359;-72
2022/03/24 10:19:07;;;;;;;5.25;2.50;;;14.70;52.80;;;;;;5113594;29;20234;-72
2022/03/24 10:21:41;;;;;;;10.10;2.55;;;13.90;50.20;;;;;;5105505;28;20031;-73
2022/03/24 10:24:13;;;;;;;3.20;2.20;;;14.00;47.60;;;;;;5115127;29;20101;-74
2022/03/24 10:27:00;;;;;;;3.35;2.20;;;14.00;49.70;;;;;;5112830;29;20098;-74
2022/03/24 10:29:34;;;;;;;5.75;2.72;;;13.90;47.30;;;;;;5110788;29;20027;-72
2022/03/24 10:32:11;;;;;;;5.00;2.50;;;14.30;49.80;;;;;;5115940;29;20054;-73
2022/03/24 10:34:48;;;;;;;5.47;2.97;;;14.40;47.80;;;;;;5111882;29;20487;-74
2022/03/24 10:37:19;;;;;;;6.03;2.33;;;14.80;50.00;;;;;;5107000;29;20027;-73
2022/03/24 10:40:08;;;;;;;4.70;2.70;;;14.20;48.10;;;;;;5111129;29;20098;-74
2022/03/24 10:42:41;;;;;;;7.00;2.40;;;14.30;47.60;;;;;;5115189;28;20040;-73
2022/03/24 10:45:20;;;;;;;4.72;2.33;;;14.50;46.60;;;;;;5113290;29;20107;-74
2022/03/24 10:47:56;;;;;;;5.47;2.15;;;14.60;45.70;;;;;;5114827;28;20075;-75
2022/03/24 10:50:40;;;;;;;4.00;2.17;;;15.00;49.30;;;;;;5111493;29;20031;-76
2022/03/24 10:53:15;;;;;;;4.97;2.60;;;14.70;46.40;;;;;;5114480;29;20062;-74
2022/03/24 10:56:06;;;;;;;5.80;2.20;;;14.80;45.90;;;;;;5111925;28;20027;-75
2022/03/24 10:58:42;;;;;;;4.97;2.20;;;14.50;45.60;;;;;;5109197;29;20035;-74
2022/03/24 11:01:17;;;;;;;5.18;2.03;;;14.90;47.80;;;;;;5110688;29;20035;-73
2022/03/24 11:03:48;;;;;;;5.65;2.10;;;15.10;45.70;;;;;;5112428;29;20055;-73
2022/03/24 11:06:20;;;;;;;6.20;2.67;;;14.80;45.70;;;;;;5116944;28;20027;-75
2022/03/24 11:08:56;;;;;;;10.40;2.20;;;14.70;47.10;;;;;;5107760;29;20476;-74
2022/03/24 11:11:28;;;;;;;8.23;2.25;;;14.90;45.10;;;;;;5108111;29;20487;-74
2022/03/24 11:14:02;;;;;;;4.40;2.08;;;14.60;43.60;;;;;;5109804;29;20447;-73
2022/03/24 11:16:34;;;;;;;4.82;2.17;;;15.00;45.70;;;;;;5108901;28;20098;-74
2022/03/24 11:19:14;;;;;;;2.50;1.60;;;15.20;45.90;;;;;;5106006;29;20026;-77
2022/03/24 11:21:48;;;;;;;3.95;2.13;;;15.10;44.80;;;;;;5104752;29;20395;-75
2022/03/24 11:24:19;;;;;;;13.93;1.77;;;14.80;43.40;;;;;;5106726;28;20059;-73
2022/03/24 11:26:51;;;;;;;5.60;2.35;;;14.80;43.60;;;;;;5111669;29;20066;-73
2022/03/24 11:29:22;;;;;;;3.75;1.67;;;15.70;43.50;;;;;;5111388;29;20038;-73
2022/03/24 11:31:53;;;;;;;3.35;1.67;;;15.60;45.20;;;;;;5115989;28;20032;-74
2022/03/24 11:34:24;;;;;;;3.30;1.83;;;15.60;43.70;;;;;;5113669;28;20032;-73
2022/03/24 11:36:55;;;;;;;5.07;2.03;;;15.40;44.40;;;;;;5110951;28;20031;-73
2022/03/24 11:39:26;;;;;;;9.73;2.22;;;15.50;45.80;;;;;;5110400;29;20031;-73
2022/03/24 11:41:58;;;;;;;3.80;2.10;;;15.60;43.90;;;;;;5113880;29;20023;-76
2022/03/24 11:44:32;;;;;;;4.25;2.10;;;16.20;46.40;;;;;;5114415;29;20376;-73
2022/03/24 11:47:12;;;;;;;4.63;2.38;;;15.70;44.80;;;;;;5112283;28;20035;-73
2022/03/24 11:49:43;;;;;;;2.63;1.90;;;15.10;40.50;;;;;;5116599;29;20428;-72
2022/03/24 11:52:14;;;;;;;4.30;2.22;;;15.10;42.40;;;;;;5115155;28;20042;-73
2022/03/24 11:54:58;;;;;;;4.85;2.20;;;14.30;40.40;;;;;;5109510;28;20031;-73
2022/03/24 11:57:34;;;;;;;7.80;2.22;;;14.80;43.30;;;;;;5106862;29;20024;-74
2022/03/24 12:00:14;;;;;;;7.05;2.08;;;15.10;41.40;;;;;;5117691;29;20051;-73
2022/03/24 12:02:51;;;;;;;4.20;2.20;;;16.30;44.30;;;;;;5118832;29;20063;-73
2022/03/24 12:05:27;;;;;;;3.95;1.77;;;15.70;41.70;;;;;;5116801;29;20028;-72
2022/03/24 12:08:05;;;;;;;4.70;1.60;;;15.60;40.90;;;;;;5131313;28;20043;-73
2022/03/24 12:10:36;;;;;;;4.78;1.92;;;16.40;41.80;;;;;;5116707;28;20031;-76
2022/03/24 12:13:21;;;;;;;4.07;1.95;;;15.90;40.40;;;;;;5117985;28;20410;-73
2022/03/24 12:16:21;;;;;;;6.72;1.75;;;16.30;42.60;;;;;;5112829;29;20024;-75
2022/03/24 12:18:53;;;;;;;5.53;1.90;;;15.70;40.70;;;;;;5112414;29;20035;-76
2022/03/24 12:21:31;;;;;;;3.58;1.85;;;15.30;39.10;;;;;;5114219;29;20035;-74
2022/03/24 12:24:04;;;;;;;3.10;1.88;;;14.60;40.00;;;;;;5118148;28;20037;-74
2022/03/24 12:26:47;;;;;;;7.13;2.05;;;15.50;41.00;;;;;;5118580;28;20103;-72
2022/03/24 12:29:21;;;;;;;6.97;2.20;;;15.60;38.50;;;;;;5116953;28;20086;-73
2022/03/24 12:32:05;;;;;;;3.35;1.73;;;16.20;41.30;;;;;;5116241;29;20040;-74
2022/03/24 12:34:39;;;;;;;4.00;2.10;;;15.30;39.00;;;;;;5114826;29;20094;-74
2022/03/24 12:37:31;;;;;;;4.57;2.08;;;15.60;40.50;;;;;;5111731;29;20072;-77
2022/03/24 12:40:09;;;;;;;4.85;2.13;;;16.10;39.70;;;;;;5114963;29;20035;-76
2022/03/24 12:42:48;;;;;;;5.80;2.35;;;16.90;40.40;;;;;;5130863;28;20054;-74
2022/03/24 12:45:27;;;;;;;8.23;2.27;;;16.00;37.30;;;;;;5115796;29;20873;-75
2022/03/24 12:48:06;;;;;;;6.93;2.10;;;14.80;36.50;;;;;;5111991;29;20051;-76
2022/03/24 12:50:37;;;;;;;3.60;1.85;;;15.40;38.20;;;;;;5112323;28;20027;-76
2022/03/24 12:53:09;;;;;;;3.67;2.28;;;15.20;37.60;;;;;;5110903;29;20039;-74
2022/03/24 12:55:42;;;;;;;4.68;2.20;;;16.30;38.30;;;;;;5108489;29;20836;-75
2022/03/24 12:58:19;;;;;;;6.00;2.25;;;16.50;39.10;;;;;;5117852;29;20046;-74
2022/03/24 13:00:51;;;;;;;3.88;2.15;;;16.80;38.80;;;;;;5116637;29;20069;-74
2022/03/24 13:03:23;;;;;;;7.72;2.20;;;16.00;37.80;;;;;;5114768;28;20056;-75
2022/03/24 13:05:58;;;;;;;4.05;2.20;;;16.00;37.60;;;;;;5116455;29;20032;-74
2022/03/24 13:08:33;;;;;;;5.13;1.98;;;16.30;39.60;;;;;;5111702;29;20036;-74
2022/03/24 13:11:04;;;;;;;5.95;2.00;;;16.90;39.50;;;;;;5115591;28;20368;-73
2022/03/24 13:13:55;;;;;;;4.43;2.05;;;17.20;39.70;;;;;;5114380;28;20055;-74
2022/03/24 13:16:28;;;;;;;7.07;2.45;;;16.20;36.80;;;;;;5116632;29;20479;-73
2022/03/24 13:19:07;;;;;;;3.28;2.10;;;15.90;38.90;;;;;;5114709;29;20071;-74
2022/03/24 13:21:41;;;;;;;4.55;2.53;;;16.10;40.50;;;;;;5112256;29;20036;-74